Time;durP1;ratioP1;P1;durP2;ratioP2;P2;SDS_P1;SDS_P2;PMS_P1;PMS_P2;Temp;Humidity;BMP_temperature;BMP_pressure;BME280_temperature;BME280_humidity;BME280_pressure;Samples;Min_cycle;Max_cycle;Signal;HPM_P1;HPM_P2
2022/12/23 00:00:53;;;;;;;18.45;8.85;;;;;;;;;;6066899;23;20018;-82
2022/12/23 00:03:19;;;;;;;18.55;8.65;;;;;;;;;;6067383;23;20661;-83
2022/12/23 00:05:45;;;;;;;17.42;8.13;;;;;;;;;;6065724;23;20025;-85
2022/12/23 00:08:10;;;;;;;19.02;8.55;;;;;;;;;;6067691;23;20037;-83
2022/12/23 00:10:39;;;;;;;18.88;8.48;;;;;;;;;;6090266;23;20018;-83
2022/12/23 00:15:49;;;;;;;20.15;8.45;;;;;;;;;;6094011;23;20077;-83
2022/12/23 00:18:14;;;;;;;18.67;8.38;;;;;;;;;;6068685;23;20022;-84
2022/12/23 00:20:39;;;;;;;19.67;8.68;;;;;;;;;;6065844;23;20054;-84
2022/12/23 00:23:05;;;;;;;17.83;8.45;;;;;;;;;;6091664;23;20018;-84
2022/12/23 00:25:43;;;;;;;19.75;9.18;;;;;;;;;;6066615;23;20021;-83
2022/12/23 00:28:10;;;;;;;;;;;;;;;;;;6070591;23;20358;-83
2022/12/23 00:30:45;;;;;;;15.65;7.90;;;;;;;;;;6090758;23;19912;-83
2022/12/23 00:33:12;;;;;;;16.02;7.57;;;;;;;;;;6092061;23;20454;-84
2022/12/23 00:35:38;;;;;;;17.83;7.97;;;;;;;;;;6066682;23;21746;-83
2022/12/23 00:38:03;;;;;;;18.77;8.45;;;;;;;;;;6067435;23;20021;-84
2022/12/23 00:43:12;;;;;;;16.90;7.78;;;;;;;;;;6095743;23;20025;-84
2022/12/23 00:45:38;;;;;;;16.40;7.95;;;;;;;;;;6090798;23;20435;-84
2022/12/23 00:50:50;;;;;;;17.90;7.75;;;;;;;;;;6094972;23;20071;-84
2022/12/23 00:53:15;;;;;;;19.88;8.55;;;;;;;;;;6067790;23;20014;-84
2022/12/23 00:55:40;;;;;;;18.85;8.10;;;;;;;;;;6090558;23;20014;-84
2022/12/23 00:58:06;;;;;;;17.10;8.25;;;;;;;;;;6067705;23;20149;-84
2022/12/23 01:06:00;;;;;;;20.52;8.85;;;;;;;;;;6094576;23;20145;-84
2022/12/23 01:08:26;;;;;;;21.67;9.13;;;;;;;;;;6067685;23;20050;-83
2022/12/23 01:10:52;;;;;;;18.80;8.88;;;;;;;;;;6066166;23;20010;-83
2022/12/23 01:13:17;;;;;;;21.80;9.20;;;;;;;;;;6092253;23;20451;-83
2022/12/23 01:15:43;;;;;;;22.13;9.23;;;;;;;;;;6065972;23;20018;-84
2022/12/23 01:18:09;;;;;;;22.70;9.38;;;;;;;;;;6067567;23;20908;-84
2022/12/23 01:20:37;;;;;;;22.77;9.30;;;;;;;;;;6066100;23;20018;-84
2022/12/23 01:23:03;;;;;;;24.05;10.13;;;;;;;;;;6067337;23;20010;-84
2022/12/23 01:25:29;;;;;;;22.90;10.45;;;;;;;;;;6066069;23;20013;-84
2022/12/23 01:27:54;;;;;;;23.42;10.20;;;;;;;;;;6091687;23;20092;-83
2022/12/23 01:30:20;;;;;;;24.33;10.50;;;;;;;;;;6066128;23;20020;-84
2022/12/23 01:32:45;;;;;;;23.00;9.80;;;;;;;;;;6068241;23;20409;-84
2022/12/23 01:35:10;;;;;;;23.98;9.57;;;;;;;;;;6090329;23;20072;-83
2022/12/23 01:37:36;;;;;;;24.10;10.57;;;;;;;;;;6091265;23;20018;-84
2022/12/23 01:40:01;;;;;;;23.90;10.50;;;;;;;;;;6090690;23;20442;-85
2022/12/23 01:42:45;;;;;;;25.80;10.35;;;;;;;;;;6090824;23;20010;-84
2022/12/23 01:45:14;;;;;;;23.85;10.13;;;;;;;;;;6070237;23;20350;-85
2022/12/23 01:47:54;;;;;;;23.73;9.95;;;;;;;;;;6067316;23;20016;-85
2022/12/23 01:50:32;;;;;;;23.55;10.00;;;;;;;;;;6115925;23;20340;-85
2022/12/23 01:53:00;;;;;;;22.25;9.38;;;;;;;;;;6067339;23;20221;-86
2022/12/23 01:55:48;;;;;;;27.10;10.43;;;;;;;;;;6090743;23;20018;-85
2022/12/23 01:58:34;;;;;;;25.50;10.27;;;;;;;;;;5975393;23;20023;-84
2022/12/23 02:03:45;;;;;;;25.48;10.38;;;;;;;;;;5981346;23;20092;-84
2022/12/23 02:09:18;;;;;;;30.02;11.65;;;;;;;;;;5980570;23;20520;-85
2022/12/23 02:11:50;;;;;;;27.23;10.48;;;;;;;;;;5979753;23;20026;-84
2022/12/23 02:17:48;;;;;;;26.20;10.68;;;;;;;;;;5984110;23;20487;-85
2022/12/23 02:20:38;;;;;;;26.40;10.20;;;;;;;;;;5976369;23;20403;-86
2022/12/23 02:23:15;;;;;;;26.20;11.00;;;;;;;;;;5976908;23;20083;-86
2022/12/23 02:26:02;;;;;;;25.83;10.45;;;;;;;;;;6000013;23;20058;-85
2022/12/23 02:28:45;;;;;;;26.77;10.93;;;;;;;;;;6000515;23;20019;-84
2022/12/23 02:31:35;;;;;;;26.25;10.38;;;;;;;;;;5999229;23;20019;-84
2022/12/23 02:34:15;;;;;;;24.85;10.05;;;;;;;;;;5976674;23;20439;-85
2022/12/23 02:37:18;;;;;;;23.30;9.50;;;;;;;;;;6091923;23;20016;-84
2022/12/23 02:39:50;;;;;;;29.05;10.63;;;;;;;;;;6116438;23;20077;-85
2022/12/23 02:42:32;;;;;;;26.58;10.23;;;;;;;;;;6067842;23;20018;-85
2022/12/23 02:45:02;;;;;;;24.60;9.80;;;;;;;;;;6092526;23;20014;-85
2022/12/23 02:47:32;;;;;;;25.02;9.18;;;;;;;;;;6067854;23;20010;-85
2022/12/23 02:50:01;;;;;;;24.23;10.20;;;;;;;;;;6067998;23;20014;-85
2022/12/23 02:52:30;;;;;;;29.55;11.43;;;;;;;;;;6067577;23;20109;-85
2022/12/23 02:55:00;;;;;;;30.77;11.05;;;;;;;;;;6068617;23;20017;-85
2022/12/23 02:57:35;;;;;;;31.35;11.32;;;;;;;;;;6067073;23;20037;-85
2022/12/23 03:00:00;;;;;;;29.83;11.70;;;;;;;;;;6092666;23;20013;-85
2022/12/23 03:02:26;;;;;;;34.08;10.02;;;;;;;;;;6068024;23;20350;-85
2022/12/23 03:04:51;;;;;;;29.48;10.60;;;;;;;;;;6092139;23;20025;-85
2022/12/23 03:07:20;;;;;;;29.92;10.80;;;;;;;;;;6068214;23;20017;-85
2022/12/23 03:10:11;;;;;;;31.05;10.50;;;;;;;;;;6092524;23;20025;-85
2022/12/23 03:13:03;;;;;;;30.85;11.48;;;;;;;;;;6067354;23;20046;-85
2022/12/23 03:15:37;;;;;;;30.73;11.00;;;;;;;;;;6066540;23;20018;-85
2022/12/23 03:18:40;;;;;;;26.20;10.57;;;;;;;;;;6091816;23;20454;-85
2022/12/23 03:21:11;;;;;;;25.70;10.68;;;;;;;;;;6012882;23;20073;-86
2022/12/23 03:23:52;;;;;;;27.85;11.05;;;;;;;;;;6091904;23;20465;-84
2022/12/23 03:26:24;;;;;;;29.58;10.13;;;;;;;;;;6091623;23;20396;-85
2022/12/23 03:29:01;;;;;;;27.45;10.35;;;;;;;;;;6067907;23;20024;-84
2022/12/23 03:31:29;;;;;;;26.60;11.43;;;;;;;;;;6067221;23;20014;-84
2022/12/23 03:34:01;;;;;;;29.98;10.93;;;;;;;;;;6068324;23;20378;-85
2022/12/23 03:36:31;;;;;;;26.38;10.75;;;;;;;;;;6067225;23;20014;-85
2022/12/23 03:38:57;;;;;;;26.60;9.90;;;;;;;;;;6067920;23;20089;-84
2022/12/23 03:41:35;;;;;;;33.42;11.18;;;;;;;;;;6091019;23;20045;-85
2022/12/23 03:44:15;;;;;;;27.23;10.43;;;;;;;;;;6067699;23;20072;-85
2022/12/23 03:46:51;;;;;;;30.88;11.82;;;;;;;;;;6090556;23;20450;-85
2022/12/23 03:49:23;;;;;;;27.58;10.63;;;;;;;;;;6067828;23;20026;-84
2022/12/23 03:52:09;;;;;;;24.95;9.73;;;;;;;;;;6065943;23;20029;-84
2022/12/23 03:54:39;;;;;;;27.52;9.55;;;;;;;;;;6067431;23;20050;-85
2022/12/23 03:57:07;;;;;;;28.25;11.43;;;;;;;;;;6067037;23;20469;-85
2022/12/23 03:59:38;;;;;;;30.65;10.95;;;;;;;;;;6091644;23;20462;-84
2022/12/23 04:02:18;;;;;;;29.98;9.77;;;;;;;;;;6066642;23;20442;-85
2022/12/23 04:04:55;;;;;;;26.70;9.98;;;;;;;;;;6062480;23;20093;-85
2022/12/23 04:07:22;;;;;;;;;;;;;;;;;;6086453;23;20527;-85
2022/12/23 04:09:50;;;;;;;31.27;10.93;;;;;;;;;;6062834;23;19916;-85
2022/12/23 04:12:16;;;;;;;27.05;10.45;;;;;;;;;;6038759;23;20010;-85
2022/12/23 04:14:48;;;;;;;30.85;11.43;;;;;;;;;;6038407;23;20084;-86
2022/12/23 04:17:14;;;;;;;27.58;10.90;;;;;;;;;;6037847;23;20102;-85
2022/12/23 04:19:41;;;;;;;25.98;10.27;;;;;;;;;;6062518;23;20467;-86
2022/12/23 04:22:06;;;;;;;28.80;10.88;;;;;;;;;;6037933;23;20094;-85
2022/12/23 04:24:32;;;;;;;29.85;11.10;;;;;;;;;;6062242;23;20045;-85
2022/12/23 04:26:57;;;;;;;27.52;10.57;;;;;;;;;;6038176;23;20022;-85
2022/12/23 04:29:22;;;;;;;31.13;10.85;;;;;;;;;;6062750;23;20010;-85
2022/12/23 04:31:48;;;;;;;33.08;11.57;;;;;;;;;;6061828;23;20090;-86
2022/12/23 04:34:13;;;;;;;27.25;10.80;;;;;;;;;;6062401;23;20025;-85
2022/12/23 04:36:39;;;;;;;28.63;11.45;;;;;;;;;;6061433;23;20029;-85
2022/12/23 04:39:04;;;;;;;24.65;10.82;;;;;;;;;;6062344;23;20038;-85
2022/12/23 04:41:30;;;;;;;31.33;11.45;;;;;;;;;;6061975;23;20026;-85
2022/12/23 04:43:55;;;;;;;29.10;10.93;;;;;;;;;;6038653;23;20010;-85
2022/12/23 04:46:20;;;;;;;29.50;10.02;;;;;;;;;;6061765;23;20462;-85
2022/12/23 04:48:46;;;;;;;28.88;10.45;;;;;;;;;;6063603;23;20023;-85
2022/12/23 04:51:11;;;;;;;27.95;10.93;;;;;;;;;;6061874;23;20454;-86
2022/12/23 04:53:37;;;;;;;27.80;10.63;;;;;;;;;;6063709;23;20022;-86
2022/12/23 04:56:03;;;;;;;29.98;11.00;;;;;;;;;;6037310;23;20438;-86
2022/12/23 04:58:28;;;;;;;29.90;10.77;;;;;;;;;;6039186;23;20347;-85
2022/12/23 05:01:02;;;;;;;26.70;9.98;;;;;;;;;;6062166;23;20026;-85
2022/12/23 05:03:27;;;;;;;26.40;10.38;;;;;;;;;;6063639;23;20014;-85
2022/12/23 05:05:53;;;;;;;31.33;11.32;;;;;;;;;;6086743;23;20021;-85
2022/12/23 05:08:18;;;;;;;29.05;10.55;;;;;;;;;;6067418;23;20033;-85
2022/12/23 05:10:44;;;;;;;25.15;10.25;;;;;;;;;;6066112;23;20810;-85
2022/12/23 05:13:09;;;;;;;27.38;10.48;;;;;;;;;;6091028;23;20029;-85
2022/12/23 05:15:35;;;;;;;28.10;9.57;;;;;;;;;;6090771;23;20014;-85
2022/12/23 05:18:00;;;;;;;31.60;11.80;;;;;;;;;;6091932;23;20042;-86
2022/12/23 05:20:26;;;;;;;25.85;9.93;;;;;;;;;;6066954;23;20044;-85
2022/12/23 05:22:51;;;;;;;27.38;10.80;;;;;;;;;;6076540;23;20021;-86
2022/12/23 05:25:17;;;;;;;29.10;10.23;;;;;;;;;;6090778;23;20045;-86
2022/12/23 05:27:42;;;;;;;26.35;11.25;;;;;;;;;;6090925;23;20085;-85
2022/12/23 05:30:08;;;;;;;27.10;10.15;;;;;;;;;;6066695;23;20346;-86
2022/12/23 05:32:34;;;;;;;28.65;10.45;;;;;;;;;;6065276;23;20028;-86
2022/12/23 05:35:00;;;;;;;29.85;10.80;;;;;;;;;;6067366;23;20013;-85
2022/12/23 05:37:25;;;;;;;30.08;10.68;;;;;;;;;;6091274;23;20017;-85
2022/12/23 05:39:51;;;;;;;25.63;9.90;;;;;;;;;;6068268;23;20017;-85
2022/12/23 05:42:18;;;;;;;24.85;10.05;;;;;;;;;;6055086;23;20438;-84
2022/12/23 05:44:44;;;;;;;26.03;10.63;;;;;;;;;;6093052;23;20410;-85
2022/12/23 05:47:10;;;;;;;27.90;10.82;;;;;;;;;;6048499;23;20096;-86
2022/12/23 05:49:36;;;;;;;30.92;11.05;;;;;;;;;;6067705;23;20094;-85
2022/12/23 05:52:01;;;;;;;32.00;11.02;;;;;;;;;;6068094;23;20035;-86
2022/12/23 05:54:26;;;;;;;27.40;11.00;;;;;;;;;;6093303;23;20370;-85
2022/12/23 05:56:52;;;;;;;24.27;9.52;;;;;;;;;;6067130;23;20532;-86
2022/12/23 05:59:18;;;;;;;28.60;10.90;;;;;;;;;;6106184;23;20014;-86
2022/12/23 06:01:43;;;;;;;30.98;10.50;;;;;;;;;;6067166;23;20042;-85
2022/12/23 06:04:09;;;;;;;26.02;10.20;;;;;;;;;;6050854;23;20421;-86
2022/12/23 06:06:34;;;;;;;23.35;10.15;;;;;;;;;;6071601;23;20026;-86
2022/12/23 06:09:00;;;;;;;32.88;10.88;;;;;;;;;;6092710;23;20024;-85
2022/12/23 06:11:25;;;;;;;27.48;10.52;;;;;;;;;;6045768;23;20014;-85
2022/12/23 06:13:51;;;;;;;28.95;10.63;;;;;;;;;;6051620;23;20024;-86
2022/12/23 06:16:17;;;;;;;26.88;10.40;;;;;;;;;;6067591;23;20018;-86
2022/12/23 06:18:42;;;;;;;27.77;10.57;;;;;;;;;;6091669;23;20041;-86
2022/12/23 06:21:08;;;;;;;22.33;9.35;;;;;;;;;;6090307;23;20026;-86
2022/12/23 06:23:33;;;;;;;24.48;9.73;;;;;;;;;;6068994;23;20351;-85
2022/12/23 06:25:59;;;;;;;23.95;9.40;;;;;;;;;;6092003;23;20524;-86
2022/12/23 06:28:26;;;;;;;25.67;9.30;;;;;;;;;;6068994;23;20029;-86
2022/12/23 06:30:55;;;;;;;25.05;10.38;;;;;;;;;;6092459;23;20078;-85
2022/12/23 06:33:21;;;;;;;25.30;8.70;;;;;;;;;;6068689;23;20085;-84
2022/12/23 06:35:46;;;;;;;21.42;9.30;;;;;;;;;;6068419;23;20009;-85
2022/12/23 06:38:12;;;;;;;26.25;10.07;;;;;;;;;;6068279;23;20316;-85
2022/12/23 06:40:37;;;;;;;25.85;9.60;;;;;;;;;;6067579;23;20033;-85
2022/12/23 06:43:03;;;;;;;26.23;9.80;;;;;;;;;;6092635;23;20061;-85
2022/12/23 06:45:28;;;;;;;23.33;8.80;;;;;;;;;;6067668;23;20037;-85
2022/12/23 06:47:53;;;;;;;23.65;9.43;;;;;;;;;;6092745;23;20037;-85
2022/12/23 06:50:19;;;;;;;29.23;9.50;;;;;;;;;;6068647;23;20110;-85
2022/12/23 06:52:45;;;;;;;22.27;8.98;;;;;;;;;;6069366;23;20033;-85
2022/12/23 06:55:10;;;;;;;24.15;9.60;;;;;;;;;;6068111;23;20033;-85
2022/12/23 06:57:36;;;;;;;24.63;9.48;;;;;;;;;;6068104;23;20014;-84
2022/12/23 07:00:03;;;;;;;25.35;10.00;;;;;;;;;;6092353;23;20423;-85
2022/12/23 07:02:29;;;;;;;30.85;9.98;;;;;;;;;;6091846;23;20025;-85
2022/12/23 07:04:54;;;;;;;24.67;9.65;;;;;;;;;;6068339;23;20018;-85
2022/12/23 07:07:20;;;;;;;25.63;9.48;;;;;;;;;;6068578;23;20367;-86
2022/12/23 07:09:45;;;;;;;28.13;9.77;;;;;;;;;;6068300;23;20018;-85
2022/12/23 07:12:10;;;;;;;21.90;9.10;;;;;;;;;;6068034;23;20017;-85
2022/12/23 07:14:36;;;;;;;24.77;9.90;;;;;;;;;;6091867;23;20383;-86
2022/12/23 07:17:01;;;;;;;30.27;9.57;;;;;;;;;;6067800;23;20037;-86
2022/12/23 07:19:27;;;;;;;28.15;10.60;;;;;;;;;;6068975;23;20014;-86
2022/12/23 07:21:52;;;;;;;27.88;9.93;;;;;;;;;;6066855;23;20021;-86
2022/12/23 07:24:17;;;;;;;28.77;9.75;;;;;;;;;;6069572;23;20077;-85
2022/12/23 07:26:43;;;;;;;34.60;10.60;;;;;;;;;;6067670;23;20100;-85
2022/12/23 07:29:08;;;;;;;31.60;9.88;;;;;;;;;;6092332;23;20052;-85
2022/12/23 07:31:34;;;;;;;34.08;10.48;;;;;;;;;;6067076;23;20022;-86
2022/12/23 07:33:59;;;;;;;35.03;10.63;;;;;;;;;;6068127;23;20014;-86
2022/12/23 07:36:24;;;;;;;31.38;9.70;;;;;;;;;;6067065;23;20018;-85
2022/12/23 07:38:50;;;;;;;32.80;9.52;;;;;;;;;;6067789;23;20009;-86
2022/12/23 07:41:16;;;;;;;36.00;10.10;;;;;;;;;;6068010;23;20521;-82
2022/12/23 07:43:41;;;;;;;33.47;9.93;;;;;;;;;;6068320;23;20025;-83
2022/12/23 07:46:10;;;;;;;30.60;9.63;;;;;;;;;;6066955;23;20121;-81
2022/12/23 07:48:35;;;;;;;29.83;9.82;;;;;;;;;;6068569;23;20495;-82
2022/12/23 07:51:01;;;;;;;30.30;9.60;;;;;;;;;;6090850;23;20021;-84
2022/12/23 07:53:27;;;;;;;28.88;9.32;;;;;;;;;;6068038;23;20510;-82
2022/12/23 07:55:52;;;;;;;26.83;8.63;;;;;;;;;;6115481;23;20073;-82
2022/12/23 07:58:18;;;;;;;30.30;8.77;;;;;;;;;;6068156;23;20384;-82
2022/12/23 08:00:43;;;;;;;26.38;9.10;;;;;;;;;;6115914;23;20013;-82
2022/12/23 08:03:10;;;;;;;31.08;9.25;;;;;;;;;;6092056;23;20036;-81
2022/12/23 08:05:36;;;;;;;31.20;9.25;;;;;;;;;;6089784;23;20027;-82
2022/12/23 08:08:02;;;;;;;28.85;9.38;;;;;;;;;;6067704;23;20022;-82
2022/12/23 08:10:27;;;;;;;32.28;9.70;;;;;;;;;;6053515;23;20044;-82
2022/12/23 08:12:53;;;;;;;31.95;9.30;;;;;;;;;;6091742;23;20480;-82
2022/12/23 08:15:18;;;;;;;27.33;8.50;;;;;;;;;;6067206;23;20018;-81
2022/12/23 08:17:44;;;;;;;30.15;8.50;;;;;;;;;;6067235;23;20405;-81
2022/12/23 08:20:09;;;;;;;31.25;9.00;;;;;;;;;;6066966;23;20471;-83
2022/12/23 08:22:35;;;;;;;32.15;8.70;;;;;;;;;;6067145;23;20018;-83
2022/12/23 08:25:00;;;;;;;31.38;8.68;;;;;;;;;;6066903;23;20068;-81
2022/12/23 08:27:26;;;;;;;33.05;8.80;;;;;;;;;;6066814;23;20442;-83
2022/12/23 08:29:51;;;;;;;30.73;8.40;;;;;;;;;;6067399;23;20014;-82
2022/12/23 08:32:16;;;;;;;33.08;8.95;;;;;;;;;;6066979;23;20382;-81
2022/12/23 08:34:42;;;;;;;31.42;9.93;;;;;;;;;;6067591;23;20018;-82
2022/12/23 08:37:07;;;;;;;28.88;8.48;;;;;;;;;;6066131;23;20010;-82
2022/12/23 08:39:33;;;;;;;30.48;8.55;;;;;;;;;;6066191;23;20403;-81
2022/12/23 08:41:58;;;;;;;24.70;7.38;;;;;;;;;;6066906;23;20014;-81
2022/12/23 08:44:26;;;;;;;30.98;8.68;;;;;;;;;;6090671;23;20017;-81
2022/12/23 08:46:53;;;;;;;25.35;7.78;;;;;;;;;;6066453;23;20032;-82
2022/12/23 08:49:19;;;;;;;24.90;8.10;;;;;;;;;;6067420;23;20010;-82
2022/12/23 08:51:45;;;;;;;24.90;7.55;;;;;;;;;;6066350;23;20029;-83
2022/12/23 08:54:10;;;;;;;25.80;8.43;;;;;;;;;;6091600;23;20566;-82
2022/12/23 08:56:39;;;;;;;25.67;9.32;;;;;;;;;;6115227;23;20041;-82
2022/12/23 08:59:04;;;;;;;24.15;7.35;;;;;;;;;;6067156;23;20006;-78
2022/12/23 09:01:32;;;;;;;23.33;7.05;;;;;;;;;;6066876;23;20100;-77
2022/12/23 09:03:57;;;;;;;26.30;7.57;;;;;;;;;;6067863;23;20462;-78
2022/12/23 09:06:27;;;;;;;26.08;7.22;;;;;;;;;;6114486;23;20092;-78
2022/12/23 09:08:53;;;;;;;26.45;8.07;;;;;;;;;;6091971;23;20073;-78
2022/12/23 09:11:21;;;;;;;27.30;8.00;;;;;;;;;;6092968;23;20013;-80
2022/12/23 09:13:46;;;;;;;;;;;;;;;;;;6094500;23;20018;-78
2022/12/23 09:16:12;;;;;;;25.40;7.43;;;;;;;;;;6068430;23;19909;-78
2022/12/23 09:18:38;;;;;;;27.17;7.55;;;;;;;;;;6068811;23;20025;-78
2022/12/23 09:21:06;;;;;;;26.55;8.10;;;;;;;;;;6068749;23;20018;-77
2022/12/23 09:23:32;;;;;;;25.05;7.20;;;;;;;;;;6093177;23;20474;-78
2022/12/23 09:25:58;;;;;;;24.10;7.20;;;;;;;;;;6068448;23;20455;-79
2022/12/23 09:28:24;;;;;;;27.27;7.47;;;;;;;;;;6068994;23;20014;-78
2022/12/23 09:30:50;;;;;;;24.13;7.28;;;;;;;;;;6068737;23;20068;-79
2022/12/23 09:33:16;;;;;;;23.90;7.28;;;;;;;;;;6093374;23;20093;-79
2022/12/23 09:35:41;;;;;;;23.13;6.57;;;;;;;;;;6067511;23;20537;-78
2022/12/23 09:38:06;;;;;;;20.23;6.53;;;;;;;;;;6069502;23;20014;-78
2022/12/23 09:40:34;;;;;;;21.65;6.85;;;;;;;;;;6067367;23;20026;-78
2022/12/23 09:43:24;;;;;;;24.27;7.13;;;;;;;;;;6069361;23;20410;-79
2022/12/23 09:46:14;;;;;;;25.00;6.90;;;;;;;;;;6068295;23;20006;-78
2022/12/23 09:48:44;;;;;;;23.13;7.03;;;;;;;;;;6093844;23;20639;-78
2022/12/23 09:51:11;;;;;;;23.33;6.65;;;;;;;;;;6069291;23;20013;-78
2022/12/23 09:53:36;;;;;;;20.33;6.95;;;;;;;;;;6068608;23;20026;-78
2022/12/23 09:56:15;;;;;;;20.65;6.55;;;;;;;;;;6092282;23;20029;-78
2022/12/23 09:59:04;;;;;;;19.98;6.25;;;;;;;;;;6092485;23;20415;-78
2022/12/23 10:01:56;;;;;;;20.23;6.45;;;;;;;;;;6092435;23;20018;-80
2022/12/23 10:04:21;;;;;;;20.23;6.45;;;;;;;;;;6091879;23;20770;-81
2022/12/23 10:07:08;;;;;;;19.85;6.07;;;;;;;;;;6092021;23;20017;-80
2022/12/23 10:09:37;;;;;;;19.27;6.13;;;;;;;;;;6092233;23;20331;-82
2022/12/23 10:12:19;;;;;;;18.30;5.72;;;;;;;;;;6068408;23;20025;-81
2022/12/23 10:14:47;;;;;;;19.77;5.88;;;;;;;;;;6068081;23;20018;-81
2022/12/23 10:17:28;;;;;;;18.30;5.38;;;;;;;;;;6068172;23;20728;-81
2022/12/23 10:19:56;;;;;;;16.38;5.43;;;;;;;;;;6068380;23;20018;-82
2022/12/23 10:22:22;;;;;;;15.05;5.47;;;;;;;;;;6092266;23;20469;-81
2022/12/23 10:24:47;;;;;;;15.80;5.47;;;;;;;;;;6092999;23;20017;-84
2022/12/23 10:27:28;;;;;;;16.60;5.28;;;;;;;;;;6091780;23;20025;-84
2022/12/23 10:29:55;;;;;;;14.02;4.70;;;;;;;;;;6066096;23;20446;-83
2022/12/23 10:32:23;;;;;;;15.87;4.90;;;;;;;;;;6090217;23;20145;-83
2022/12/23 10:35:09;;;;;;;12.48;4.43;;;;;;;;;;6091457;23;20553;-84
2022/12/23 10:38:02;;;;;;;14.63;4.80;;;;;;;;;;6090632;23;20013;-83
2022/12/23 10:40:52;;;;;;;12.80;3.85;;;;;;;;;;6002502;23;20484;-83
2022/12/23 10:43:46;;;;;;;14.52;4.15;;;;;;;;;;6032431;23;20018;-83
2022/12/23 10:46:39;;;;;;;14.18;4.53;;;;;;;;;;6002985;23;20039;-83
2022/12/23 10:49:10;;;;;;;14.20;5.43;;;;;;;;;;6024964;23;20090;-83
2022/12/23 10:51:48;;;;;;;12.20;4.85;;;;;;;;;;6039778;23;20026;-82
2022/12/23 10:54:23;;;;;;;13.23;4.50;;;;;;;;;;5988426;23;20061;-83
2022/12/23 10:56:48;;;;;;;13.38;5.13;;;;;;;;;;6030442;23;20071;-82
2022/12/23 10:59:15;;;;;;;13.38;5.20;;;;;;;;;;6007000;23;20023;-82
2022/12/23 11:01:42;;;;;;;11.05;4.40;;;;;;;;;;6005189;23;20097;-82
2022/12/23 11:04:13;;;;;;;11.95;4.40;;;;;;;;;;6020606;23;20030;-83
2022/12/23 11:06:42;;;;;;;11.93;4.70;;;;;;;;;;5983938;23;20035;-83
2022/12/23 11:09:17;;;;;;;15.25;5.45;;;;;;;;;;6052819;23;20015;-83
2022/12/23 11:11:55;;;;;;;15.00;5.53;;;;;;;;;;6030092;23;20907;-82
2022/12/23 11:14:37;;;;;;;10.80;4.57;;;;;;;;;;6055586;23;20079;-83
2022/12/23 11:17:04;;;;;;;11.50;4.93;;;;;;;;;;6034852;23;20029;-82
2022/12/23 11:19:29;;;;;;;11.68;5.20;;;;;;;;;;6044462;23;20010;-83
2022/12/23 11:22:01;;;;;;;10.93;5.18;;;;;;;;;;6090359;23;20073;-84
2022/12/23 11:24:31;;;;;;;12.38;5.07;;;;;;;;;;6089695;23;20520;-82
2022/12/23 11:27:05;;;;;;;11.93;5.60;;;;;;;;;;6090838;23;20021;-82
2022/12/23 11:29:33;;;;;;;12.30;4.97;;;;;;;;;;6090183;23;20022;-81
2022/12/23 11:31:59;;;;;;;10.80;5.35;;;;;;;;;;6066557;23;20021;-81
2022/12/23 11:34:25;;;;;;;10.60;4.82;;;;;;;;;;6066089;23;20014;-82
2022/12/23 11:36:53;;;;;;;9.13;4.70;;;;;;;;;;6065766;23;20010;-82
2022/12/23 11:39:33;;;;;;;11.23;5.25;;;;;;;;;;6067494;23;20033;-83
2022/12/23 11:42:27;;;;;;;10.05;4.70;;;;;;;;;;6065121;23;20017;-83
2022/12/23 11:44:53;;;;;;;12.40;5.57;;;;;;;;;;6086475;23;20057;-82
2022/12/23 11:47:22;;;;;;;11.27;5.57;;;;;;;;;;6066710;23;20367;-81
2022/12/23 11:49:53;;;;;;;11.02;5.22;;;;;;;;;;6088989;23;20464;-82
2022/12/23 11:52:21;;;;;;;12.23;5.53;;;;;;;;;;6077236;23;20017;-82
2022/12/23 11:54:53;;;;;;;11.40;5.38;;;;;;;;;;6090248;23;20017;-82
2022/12/23 11:57:22;;;;;;;12.05;5.95;;;;;;;;;;6065258;23;20790;-81
2022/12/23 11:59:49;;;;;;;12.43;5.93;;;;;;;;;;6089358;23;20477;-83
2022/12/23 12:02:34;;;;;;;13.38;6.60;;;;;;;;;;6089344;23;20461;-81
2022/12/23 12:05:04;;;;;;;13.90;6.28;;;;;;;;;;6088554;23;20177;-82
2022/12/23 12:07:30;;;;;;;12.35;5.70;;;;;;;;;;6088560;23;20128;-83
2022/12/23 12:09:57;;;;;;;14.25;5.85;;;;;;;;;;6052780;23;20020;-83
2022/12/23 12:12:23;;;;;;;15.98;7.53;;;;;;;;;;6064504;23;20100;-83
2022/12/23 12:14:53;;;;;;;14.23;7.03;;;;;;;;;;6065950;23;20491;-81
2022/12/23 12:17:22;;;;;;;13.00;6.00;;;;;;;;;;6113519;23;20010;-80
2022/12/23 12:19:57;;;;;;;12.77;6.20;;;;;;;;;;6065883;23;20037;-82
2022/12/23 12:22:35;;;;;;;14.55;6.25;;;;;;;;;;6087903;23;20045;-81
2022/12/23 12:25:10;;;;;;;14.48;6.20;;;;;;;;;;6088910;23;20037;-81
2022/12/23 12:27:38;;;;;;;15.57;6.20;;;;;;;;;;6088668;23;20081;-82
2022/12/23 12:30:06;;;;;;;14.27;6.50;;;;;;;;;;6089117;23;20351;-82
2022/12/23 12:32:54;;;;;;;16.23;6.60;;;;;;;;;;6065116;23;20470;-82
2022/12/23 12:35:42;;;;;;;13.05;6.07;;;;;;;;;;6065569;23;20018;-82
2022/12/23 12:38:24;;;;;;;11.32;5.22;;;;;;;;;;6089781;23;20018;-82
2022/12/23 12:40:53;;;;;;;12.20;5.50;;;;;;;;;;6088626;23;20037;-82
2022/12/23 12:43:30;;;;;;;10.23;5.13;;;;;;;;;;6067244;23;20189;-82
2022/12/23 12:46:07;;;;;;;12.75;6.15;;;;;;;;;;6088949;23;20130;-82
2022/12/23 12:48:41;;;;;;;14.20;5.97;;;;;;;;;;6089726;23;20503;-82
2022/12/23 12:51:36;;;;;;;11.30;5.20;;;;;;;;;;6088442;23;20025;-82
2022/12/23 12:54:08;;;;;;;10.30;4.82;;;;;;;;;;6070168;23;20018;-83
2022/12/23 12:56:44;;;;;;;10.23;4.97;;;;;;;;;;6090135;23;20286;-84
2022/12/23 12:59:17;;;;;;;11.50;5.28;;;;;;;;;;6065796;23;20105;-82
2022/12/23 13:01:43;;;;;;;9.90;4.60;;;;;;;;;;6066160;23;20361;-82
2022/12/23 13:04:50;;;;;;;10.95;5.15;;;;;;;;;;6090144;23;20021;-83
2022/12/23 13:08:04;;;;;;;12.38;4.95;;;;;;;;;;6065769;23;20103;-85
2022/12/23 13:10:38;;;;;;;11.75;4.60;;;;;;;;;;6057912;23;20081;-82
2022/12/23 13:13:22;;;;;;;9.48;4.88;;;;;;;;;;6090068;23;20021;-82
2022/12/23 13:15:54;;;;;;;9.68;4.40;;;;;;;;;;6115836;23;20033;-85
2022/12/23 13:18:56;;;;;;;10.25;4.65;;;;;;;;;;6090330;23;20014;-81
2022/12/23 13:21:40;;;;;;;9.15;4.57;;;;;;;;;;6064913;23;20018;-84
2022/12/23 13:24:21;;;;;;;8.38;4.07;;;;;;;;;;6116838;23;20094;-81
2022/12/23 13:27:06;;;;;;;11.07;4.95;;;;;;;;;;6090397;23;20631;-81
2022/12/23 13:29:41;;;;;;;10.98;4.90;;;;;;;;;;6091051;23;20038;-82
2022/12/23 13:32:44;;;;;;;9.88;5.13;;;;;;;;;;6114624;23;20014;-81
2022/12/23 13:35:13;;;;;;;11.65;4.97;;;;;;;;;;6099987;23;20029;-81
2022/12/23 13:37:50;;;;;;;10.52;5.18;;;;;;;;;;6089782;23;20040;-81
2022/12/23 13:40:47;;;;;;;9.75;5.00;;;;;;;;;;6065582;23;20100;-82
2022/12/23 13:43:21;;;;;;;9.82;4.88;;;;;;;;;;6099148;23;20018;-82
2022/12/23 13:45:48;;;;;;;10.85;5.15;;;;;;;;;;6065309;23;20073;-82
2022/12/23 13:48:29;;;;;;;11.13;5.72;;;;;;;;;;6090763;23;20545;-82
2022/12/23 13:50:54;;;;;;;12.48;5.72;;;;;;;;;;6075329;23;20026;-83
2022/12/23 13:53:32;;;;;;;11.23;5.97;;;;;;;;;;6091264;23;20383;-80
2022/12/23 13:56:00;;;;;;;13.73;5.97;;;;;;;;;;6089854;23;20018;-81
2022/12/23 13:58:29;;;;;;;13.00;7.00;;;;;;;;;;6091717;23;20022;-80
2022/12/23 14:01:06;;;;;;;12.75;7.18;;;;;;;;;;6066631;23;20021;-82
2022/12/23 14:03:33;;;;;;;12.18;6.82;;;;;;;;;;6092371;23;20017;-83
2022/12/23 14:06:18;;;;;;;14.02;6.88;;;;;;;;;;6091408;23;20022;-83
2022/12/23 14:08:44;;;;;;;13.52;6.50;;;;;;;;;;6092545;23;20014;-84
2022/12/23 14:11:25;;;;;;;13.43;6.25;;;;;;;;;;6067154;23;20065;-84
2022/12/23 14:13:50;;;;;;;14.25;6.35;;;;;;;;;;6091868;23;20520;-83
2022/12/23 14:16:23;;;;;;;10.35;5.63;;;;;;;;;;6090814;23;20093;-82
2022/12/23 14:19:07;;;;;;;11.93;6.45;;;;;;;;;;6118205;23;20014;-83
2022/12/23 14:22:10;;;;;;;12.27;5.85;;;;;;;;;;6090222;23;20029;-83
2022/12/23 14:25:03;;;;;;;11.77;6.25;;;;;;;;;;6117243;23;20022;-82
2022/12/23 14:27:58;;;;;;;12.63;6.43;;;;;;;;;;6090353;23;20041;-82
2022/12/23 14:30:34;;;;;;;12.65;5.90;;;;;;;;;;6090141;23;20033;-82
2022/12/23 14:33:02;;;;;;;12.52;6.07;;;;;;;;;;6068144;23;20045;-81
2022/12/23 14:35:35;;;;;;;13.45;6.03;;;;;;;;;;6031414;23;20092;-86
2022/12/23 14:38:23;;;;;;;10.55;6.03;;;;;;;;;;6064312;23;20018;-86
2022/12/23 14:40:53;;;;;;;11.52;6.28;;;;;;;;;;6089938;23;20033;-86
2022/12/23 14:43:21;;;;;;;12.40;6.78;;;;;;;;;;6089595;23;20346;-86
2022/12/23 14:45:56;;;;;;;12.05;6.05;;;;;;;;;;6090163;23;20021;-84
2022/12/23 14:48:40;;;;;;;12.27;6.53;;;;;;;;;;6067382;23;20060;-84
2022/12/23 14:51:21;;;;;;;13.60;6.60;;;;;;;;;;6116990;23;20014;-85
2022/12/23 14:53:52;;;;;;;14.27;6.00;;;;;;;;;;6091873;23;20025;-82
2022/12/23 14:56:17;;;;;;;13.90;6.30;;;;;;;;;;6090734;23;20366;-85
2022/12/23 14:59:18;;;;;;;14.77;6.93;;;;;;;;;;6089879;23;20017;-85
2022/12/23 15:01:54;;;;;;;12.00;6.38;;;;;;;;;;6015921;23;20041;-86
2022/12/23 15:04:47;;;;;;;11.35;6.32;;;;;;;;;;6089899;23;20359;-83
2022/12/23 15:07:24;;;;;;;13.85;7.35;;;;;;;;;;6057357;23;20025;-83
2022/12/23 15:09:58;;;;;;;13.23;6.50;;;;;;;;;;6091813;23;20645;-83
2022/12/23 15:12:30;;;;;;;13.75;6.72;;;;;;;;;;6066203;23;20298;-84
2022/12/23 15:15:05;;;;;;;12.48;6.82;;;;;;;;;;6066632;23;20018;-84